createdAt,value
2022-07-25T00:01:11.947Z,24.97
2022-07-25T00:03:39.229Z,25.00
2022-07-25T00:06:06.757Z,24.94
2022-07-25T00:08:40.014Z,24.93
2022-07-25T00:11:06.514Z,24.90
2022-07-25T00:13:33.068Z,24.89
2022-07-25T00:15:59.577Z,24.85
2022-07-25T00:18:26.239Z,24.84
2022-07-25T00:20:53.558Z,24.83
2022-07-25T00:23:20.043Z,24.87
2022-07-25T00:25:46.555Z,24.86
2022-07-25T00:28:13.007Z,24.79
2022-07-25T00:30:39.467Z,24.74
2022-07-25T00:33:06.089Z,24.72
2022-07-25T00:35:32.562Z,24.61
2022-07-25T00:37:59.022Z,24.58
2022-07-25T00:40:25.526Z,24.51
2022-07-25T00:42:52.231Z,24.47
2022-07-25T00:45:18.709Z,24.48
2022-07-25T00:47:45.164Z,24.36
2022-07-25T00:50:11.705Z,24.25
2022-07-25T00:52:38.354Z,24.17
2022-07-25T00:55:05.771Z,24.14
2022-07-25T00:57:32.336Z,24.19
2022-07-25T00:59:58.799Z,24.21
2022-07-25T01:02:25.379Z,24.25
2022-07-25T01:04:51.893Z,24.24
2022-07-25T01:07:18.459Z,24.22
2022-07-25T01:09:45.179Z,24.22
2022-07-25T01:12:11.678Z,24.23
2022-07-25T01:14:38.690Z,24.23
2022-07-25T01:17:05.560Z,24.24
2022-07-25T01:19:32.028Z,24.17
2022-07-25T01:21:58.548Z,24.16
2022-07-25T01:24:25.038Z,24.14
2022-07-25T01:26:51.868Z,24.15
2022-07-25T01:29:18.313Z,24.19
2022-07-25T01:31:44.741Z,24.23
2022-07-25T01:34:11.224Z,24.22
2022-07-25T01:36:37.684Z,24.17
2022-07-25T01:39:04.312Z,24.09
2022-07-25T01:41:31.024Z,24.02
2022-07-25T01:43:57.484Z,24.06
2022-07-25T01:46:24.033Z,24.07
2022-07-25T01:48:50.589Z,24.06
2022-07-25T01:51:20.392Z,24.05
2022-07-25T01:53:47.471Z,24.06
2022-07-25T01:56:14.904Z,24.02
2022-07-25T01:58:41.451Z,23.99
2022-07-25T02:01:07.949Z,24.00
2022-07-25T02:03:34.489Z,23.94
2022-07-25T02:06:04.313Z,23.89
2022-07-25T02:08:31.819Z,23.86
2022-07-25T02:10:59.652Z,23.80
2022-07-25T02:13:27.213Z,23.72
2022-07-25T02:42:57.809Z,23.33
2022-07-25T02:45:24.527Z,23.36
2022-07-25T02:47:51.019Z,23.29
2022-07-25T02:50:17.688Z,23.20
2022-07-25T02:52:44.202Z,23.19
2022-07-25T02:55:11.878Z,23.14
2022-07-25T02:57:38.362Z,23.07
2022-07-25T03:00:06.936Z,23.07
2022-07-25T03:02:33.388Z,23.14
2022-07-25T03:04:59.832Z,23.16
2022-07-25T03:07:26.237Z,23.20
2022-07-25T03:09:52.682Z,23.24
2022-07-25T03:12:19.172Z,23.19
2022-07-25T03:14:45.569Z,23.17
2022-07-25T03:17:12.065Z,23.20
2022-07-25T03:19:38.631Z,23.18
2022-07-25T03:22:05.162Z,23.17
2022-07-25T03:24:31.691Z,23.17
2022-07-25T03:26:58.133Z,23.18
2022-07-25T03:29:24.576Z,23.19
2022-07-25T03:31:51.098Z,23.19
2022-07-25T03:34:17.612Z,23.16
2022-07-25T03:36:44.138Z,23.19
2022-07-25T03:39:10.684Z,23.20
2022-07-25T03:41:37.291Z,23.19
2022-07-25T03:44:04.386Z,23.18
2022-07-25T03:46:31.139Z,23.16
2022-07-25T03:48:57.686Z,23.08
2022-07-25T03:51:24.310Z,23.08
2022-07-25T03:54:03.000Z,23.08
2022-07-25T03:56:43.399Z,23.09
2022-07-25T03:59:12.344Z,23.06
2022-07-25T04:01:39.156Z,23.07
2022-07-25T04:04:05.899Z,23.08
2022-07-25T04:06:32.605Z,23.07
2022-07-25T04:11:25.523Z,23.02
2022-07-25T04:13:52.005Z,23.00
2022-07-25T04:16:22.473Z,22.99
2022-07-25T04:18:50.660Z,22.95
2022-07-25T04:21:18.301Z,22.96
2022-07-25T04:23:44.883Z,22.99
2022-07-25T04:26:11.467Z,23.05
2022-07-25T04:28:37.899Z,23.05
2022-07-25T04:31:04.674Z,23.02
2022-07-25T04:33:31.154Z,23.03
2022-07-25T04:35:57.562Z,23.10
2022-07-25T04:38:24.001Z,23.15
2022-07-25T04:40:50.446Z,23.19
2022-07-25T04:43:16.964Z,23.21
2022-07-25T04:45:43.442Z,23.22
2022-07-25T04:48:09.893Z,23.26
2022-07-25T04:50:36.426Z,23.32
2022-07-25T04:53:03.162Z,23.33
2022-07-25T04:55:29.625Z,23.34
2022-07-25T04:57:56.060Z,23.42
2022-07-25T05:00:23.774Z,23.55
2022-07-25T05:02:51.610Z,23.70
2022-07-25T05:05:21.650Z,23.74
2022-07-25T05:07:49.861Z,23.84
2022-07-25T05:10:17.069Z,23.97
2022-07-25T05:12:43.492Z,24.08
2022-07-25T05:15:10.372Z,24.18
2022-07-25T05:17:36.777Z,24.26
2022-07-25T05:20:03.836Z,24.37
2022-07-25T05:22:30.280Z,24.49
2022-07-25T05:24:56.692Z,24.60
2022-07-25T05:27:23.470Z,24.70
2022-07-25T05:29:49.874Z,24.81
2022-07-25T05:32:16.273Z,24.90
2022-07-25T05:34:42.717Z,25.02
2022-07-25T05:37:09.200Z,25.11
2022-07-25T05:39:37.387Z,25.26
2022-07-25T05:42:03.916Z,25.44
2022-07-25T05:44:30.366Z,25.55
2022-07-25T05:46:56.984Z,25.68
2022-07-25T05:49:23.517Z,25.77
2022-07-25T05:51:49.953Z,25.88
2022-07-25T05:54:16.400Z,26.03
2022-07-25T05:56:43.085Z,26.15
2022-07-25T05:59:09.570Z,26.24
2022-07-25T06:01:36.673Z,26.27
2022-07-25T06:04:03.509Z,26.31
2022-07-25T06:06:32.676Z,26.39
2022-07-25T06:08:59.173Z,26.49
2022-07-25T06:11:30.877Z,26.58
2022-07-25T06:13:57.532Z,26.69
2022-07-25T06:16:24.450Z,26.80
2022-07-25T06:18:51.000Z,26.92
2022-07-25T06:21:17.443Z,27.04
2022-07-25T06:23:43.944Z,27.11
2022-07-25T06:26:10.917Z,27.06
2022-07-25T06:28:38.476Z,27.13
2022-07-25T06:31:05.040Z,27.24
2022-07-25T06:33:31.505Z,27.31
2022-07-25T06:35:58.352Z,27.42
2022-07-25T06:38:24.856Z,27.51
2022-07-25T06:40:51.332Z,27.60
2022-07-25T06:43:17.840Z,27.65
2022-07-25T06:45:47.331Z,27.78
2022-07-25T06:48:15.144Z,27.90
2022-07-25T06:50:42.015Z,27.96
2022-07-25T06:53:08.560Z,27.96
2022-07-25T06:55:35.230Z,27.97
2022-07-25T06:58:01.745Z,28.05
2022-07-25T07:00:28.698Z,28.12
2022-07-25T07:02:58.176Z,28.23
2022-07-25T07:05:27.045Z,28.30
2022-07-25T07:07:54.290Z,28.37
2022-07-25T07:10:21.990Z,28.39
2022-07-25T07:12:49.490Z,28.44
2022-07-25T07:15:17.168Z,28.56
2022-07-25T07:17:43.703Z,28.67
2022-07-25T07:20:10.664Z,28.72
2022-07-25T07:22:44.999Z,28.77
2022-07-25T07:25:13.497Z,28.83
2022-07-25T07:27:40.735Z,28.93
2022-07-25T07:30:07.923Z,29.07
2022-07-25T07:32:35.880Z,29.18
2022-07-25T07:35:02.416Z,29.16
2022-07-25T07:37:35.055Z,29.26
2022-07-25T07:40:04.118Z,29.33
2022-07-25T07:42:38.997Z,29.39
2022-07-25T07:45:11.429Z,29.50
2022-07-25T07:47:37.893Z,29.60
2022-07-25T07:50:04.841Z,29.79
2022-07-25T07:52:31.266Z,29.82
2022-07-25T07:55:16.025Z,29.85
2022-07-25T07:57:42.432Z,29.94
2022-07-25T08:00:12.422Z,30.05
2022-07-25T08:02:53.232Z,30.19
2022-07-25T08:05:28.165Z,30.29
2022-07-25T08:07:55.515Z,30.37
2022-07-25T08:10:27.683Z,30.46
2022-07-25T08:12:54.122Z,30.38
2022-07-25T08:15:21.765Z,30.34
2022-07-25T08:17:50.192Z,30.42
2022-07-25T08:20:37.024Z,30.51
2022-07-25T08:23:05.071Z,30.55
2022-07-25T08:25:31.522Z,30.70
2022-07-25T08:27:58.903Z,30.74
2022-07-25T08:30:25.356Z,30.87
2022-07-25T08:32:54.350Z,31.05
2022-07-25T08:35:21.313Z,31.09
2022-07-25T08:37:48.549Z,31.16
2022-07-25T08:40:18.085Z,31.24
2022-07-25T08:42:44.686Z,31.33
2022-07-25T08:45:19.469Z,31.51
2022-07-25T08:47:48.025Z,31.78
2022-07-25T08:50:18.145Z,31.91
2022-07-25T08:52:47.492Z,31.99
2022-07-25T08:55:22.116Z,31.98
2022-07-25T08:57:51.332Z,31.84
2022-07-25T09:00:21.540Z,31.92
2022-07-25T09:02:53.574Z,32.16
2022-07-25T09:05:25.043Z,32.36
2022-07-25T09:07:53.023Z,32.45
2022-07-25T09:10:22.053Z,32.52
2022-07-25T09:12:56.583Z,32.56
2022-07-25T09:15:34.365Z,32.57
2022-07-25T09:18:10.684Z,32.52
2022-07-25T09:20:50.573Z,32.39
2022-07-25T09:23:31.107Z,32.53
2022-07-25T09:26:05.121Z,32.76
2022-07-25T09:28:32.248Z,32.85
2022-07-25T09:31:00.728Z,32.82
2022-07-25T09:33:28.767Z,32.60
2022-07-25T09:35:56.363Z,32.53
2022-07-25T09:38:24.775Z,32.61
2022-07-25T09:40:58.971Z,32.93
2022-07-25T09:43:42.990Z,32.88
2022-07-25T09:46:10.769Z,32.94
2022-07-25T09:48:39.487Z,33.00
2022-07-25T09:51:07.751Z,32.86
2022-07-25T09:53:34.414Z,32.88
2022-07-25T09:56:01.073Z,32.77
2022-07-25T09:58:29.622Z,32.84
2022-07-25T10:01:00.864Z,33.01
2022-07-25T10:04:06.903Z,33.32
2022-07-25T10:06:52.190Z,33.58
2022-07-25T10:09:19.033Z,33.46
2022-07-25T10:12:05.918Z,33.60
2022-07-25T10:14:33.977Z,33.78
2022-07-25T10:17:01.945Z,33.91
2022-07-25T10:19:45.981Z,33.89
2022-07-25T10:22:22.788Z,33.88
2022-07-25T10:25:17.639Z,34.00
2022-07-25T10:27:48.734Z,34.13
2022-07-25T10:30:23.398Z,34.16
2022-07-25T10:32:51.603Z,33.95
2022-07-25T10:35:18.167Z,33.86
2022-07-25T10:37:48.981Z,33.88
2022-07-25T10:40:26.597Z,33.99
2022-07-25T10:43:08.142Z,33.93
2022-07-25T10:45:43.504Z,33.92
2022-07-25T10:48:24.193Z,34.11
2022-07-25T10:50:56.727Z,34.33
2022-07-25T10:53:44.955Z,34.41
2022-07-25T10:56:17.573Z,34.50
2022-07-25T10:58:57.591Z,34.59
2022-07-25T11:01:33.390Z,34.65
2022-07-25T11:04:02.962Z,34.64
2022-07-25T11:06:43.432Z,34.52
2022-07-25T11:09:21.618Z,34.41
2022-07-25T11:11:53.720Z,34.51
2022-07-25T11:14:26.957Z,34.55
2022-07-25T11:16:56.064Z,34.73
2022-07-25T11:19:29.284Z,35.01
2022-07-25T11:21:58.571Z,35.27
2022-07-25T11:24:40.437Z,35.41
2022-07-25T11:27:21.921Z,35.39
2022-07-25T11:29:48.701Z,35.18
2022-07-25T11:32:15.362Z,35.06
2022-07-25T11:34:44.809Z,35.21
2022-07-25T11:37:12.945Z,35.22
2022-07-25T11:39:43.140Z,35.34
2022-07-25T11:42:12.597Z,35.55
2022-07-25T11:44:45.508Z,35.66
2022-07-25T11:47:25.095Z,35.27
2022-07-25T11:49:52.650Z,34.92
2022-07-25T11:52:24.351Z,35.07
2022-07-25T11:54:56.337Z,34.88
2022-07-25T11:57:32.028Z,35.19
2022-07-25T12:00:02.715Z,35.46
2022-07-25T12:02:35.237Z,35.44
2022-07-25T12:05:07.908Z,35.63
2022-07-25T12:07:39.835Z,35.69
2022-07-25T12:10:17.806Z,35.49
2022-07-25T12:12:57.494Z,35.08
2022-07-25T12:15:27.304Z,35.25
2022-07-25T12:17:56.180Z,35.22
2022-07-25T12:20:26.204Z,34.99
2022-07-25T12:22:59.084Z,34.64
2022-07-25T12:25:30.736Z,34.38
2022-07-25T12:27:59.556Z,34.16
2022-07-25T12:30:27.797Z,34.17
2022-07-25T12:32:56.201Z,34.35
2022-07-25T12:35:23.397Z,34.77
2022-07-25T12:37:52.008Z,34.97
2022-07-25T12:40:19.432Z,35.31
2022-07-25T12:42:46.498Z,35.36
2022-07-25T12:45:14.802Z,35.16
2022-07-25T12:47:43.802Z,34.92
2022-07-25T12:50:10.327Z,34.51
2022-07-25T12:52:38.314Z,34.36
2022-07-25T12:55:06.901Z,34.26
2022-07-25T12:57:35.324Z,34.19
2022-07-25T13:00:02.594Z,34.08
2022-07-25T13:02:29.155Z,33.99
2022-07-25T13:04:55.676Z,33.95
2022-07-25T13:07:22.179Z,33.93
2022-07-25T13:09:48.736Z,33.95
2022-07-25T13:12:16.654Z,34.03
2022-07-25T13:14:43.343Z,34.39
2022-07-25T13:17:10.815Z,34.89
2022-07-25T13:19:37.659Z,35.36
2022-07-25T13:22:04.689Z,35.67
2022-07-25T13:24:34.871Z,35.81
2022-07-25T13:27:05.790Z,35.65
2022-07-25T13:29:32.638Z,35.49
2022-07-25T13:32:01.793Z,35.13
2022-07-25T13:34:28.825Z,34.90
2022-07-25T13:36:55.677Z,34.87
2022-07-25T13:39:22.662Z,34.91
2022-07-25T13:41:49.834Z,34.62
2022-07-25T13:44:16.340Z,34.40
2022-07-25T13:46:46.032Z,34.32
2022-07-25T13:49:13.432Z,34.33
2022-07-25T13:51:39.961Z,34.21
2022-07-25T13:54:07.066Z,34.14
2022-07-25T13:56:33.720Z,34.18
2022-07-25T13:59:02.477Z,34.25
2022-07-25T14:01:29.150Z,34.32
2022-07-25T14:03:59.649Z,34.30
2022-07-25T14:06:26.188Z,34.24
2022-07-25T14:08:52.641Z,34.16
2022-07-25T14:11:19.308Z,34.14
2022-07-25T14:13:45.899Z,34.14
2022-07-25T14:16:16.418Z,34.13
2022-07-25T14:18:42.906Z,34.11
2022-07-25T14:21:09.346Z,34.12
2022-07-25T14:23:35.745Z,34.16
2022-07-25T14:26:02.391Z,34.35
2022-07-25T14:28:29.627Z,34.27
2022-07-25T14:30:56.589Z,34.04
2022-07-25T14:33:23.048Z,33.88
2022-07-25T14:35:49.633Z,33.74
2022-07-25T14:38:23.692Z,33.63
2022-07-25T14:40:54.451Z,33.56
2022-07-25T14:43:20.913Z,33.65
2022-07-25T14:45:50.587Z,33.90
2022-07-25T14:48:20.848Z,34.23
2022-07-25T14:50:47.382Z,34.43
2022-07-25T14:53:14.443Z,34.69
2022-07-25T14:55:41.019Z,34.80
2022-07-25T14:58:07.518Z,34.55
2022-07-25T15:00:34.133Z,34.38
2022-07-25T15:03:01.608Z,34.38
2022-07-25T15:05:28.054Z,34.64
2022-07-25T15:07:54.554Z,34.90
2022-07-25T15:10:21.167Z,34.94
2022-07-25T15:13:02.310Z,34.75
2022-07-25T15:15:37.655Z,34.56
2022-07-25T15:18:04.545Z,34.57
2022-07-25T15:20:31.167Z,34.39
2022-07-25T15:22:58.079Z,34.13
2022-07-25T15:25:59.954Z,33.98
2022-07-25T15:28:11.459Z,33.95
2022-07-25T15:30:37.906Z,34.19
2022-07-25T15:33:04.311Z,34.45
2022-07-25T15:35:30.748Z,34.35
2022-07-25T15:37:58.233Z,34.18
2022-07-25T15:40:27.435Z,33.87
2022-07-25T15:42:53.870Z,33.59
2022-07-25T15:45:33.844Z,33.42
2022-07-25T15:48:01.425Z,33.37
2022-07-25T15:50:27.916Z,33.14
2022-07-25T15:52:55.543Z,32.68
2022-07-25T15:55:22.078Z,32.33
2022-07-25T15:57:48.561Z,31.99
2022-07-25T16:00:15.173Z,31.80
2022-07-25T16:02:41.642Z,31.65
2022-07-25T16:05:08.352Z,31.58
2022-07-25T16:07:34.857Z,31.60
2022-07-25T16:10:01.631Z,31.85
2022-07-25T16:12:28.875Z,32.09
2022-07-25T16:14:55.635Z,32.24
2022-07-25T16:17:22.290Z,32.25
2022-07-25T16:19:48.794Z,32.16
2022-07-25T16:22:15.342Z,32.07
2022-07-25T16:24:41.832Z,32.05
2022-07-25T16:27:09.335Z,32.00
2022-07-25T16:29:35.888Z,32.01
2022-07-25T16:32:03.053Z,32.21
2022-07-25T16:34:29.486Z,32.39
2022-07-25T16:36:55.968Z,32.39
2022-07-25T16:39:22.971Z,32.37
2022-07-25T16:41:49.525Z,32.30
2022-07-25T16:44:16.419Z,32.20
2022-07-25T16:46:42.930Z,32.20
2022-07-25T16:49:10.110Z,32.32
2022-07-25T16:51:37.442Z,32.34
2022-07-25T16:54:09.794Z,32.39
2022-07-25T16:56:37.334Z,32.54
2022-07-25T16:59:08.337Z,32.72
2022-07-25T17:01:35.672Z,33.05
2022-07-25T17:04:02.472Z,33.43
2022-07-25T17:06:29.163Z,33.90
2022-07-25T17:08:55.891Z,34.48
2022-07-25T17:11:22.620Z,35.02
2022-07-25T17:13:49.121Z,35.40
2022-07-25T17:16:15.751Z,35.72
2022-07-25T17:18:42.410Z,35.79
2022-07-25T17:21:09.543Z,35.17
2022-07-25T17:23:36.456Z,35.02
2022-07-25T17:26:05.190Z,35.26
2022-07-25T17:28:32.134Z,35.33
2022-07-25T17:30:58.642Z,35.27
2022-07-25T17:33:25.138Z,35.38
2022-07-25T17:35:52.215Z,35.40
2022-07-25T17:38:23.801Z,35.44
2022-07-25T17:40:56.826Z,35.32
2022-07-25T17:43:23.376Z,35.34
2022-07-25T17:45:52.456Z,35.24
2022-07-25T17:48:18.936Z,35.12
2022-07-25T17:50:45.389Z,34.98
2022-07-25T17:53:12.180Z,34.77
2022-07-25T17:55:39.272Z,33.46
2022-07-25T17:58:06.053Z,32.54
2022-07-25T18:00:32.616Z,31.99
2022-07-25T18:02:59.379Z,31.69
2022-07-25T18:05:26.114Z,31.49
2022-07-25T18:07:53.495Z,31.34
2022-07-25T18:10:23.268Z,31.20
2022-07-25T18:12:49.871Z,31.09
2022-07-25T18:15:17.037Z,30.97
2022-07-25T18:17:45.351Z,30.85
2022-07-25T18:20:13.851Z,30.77
2022-07-25T18:22:41.453Z,30.66
2022-07-25T18:25:11.148Z,30.59
2022-07-25T18:27:40.632Z,30.49
2022-07-25T18:30:08.253Z,30.38
2022-07-25T18:32:35.376Z,30.24
2022-07-25T18:35:02.105Z,30.09
2022-07-25T18:37:28.789Z,29.98
2022-07-25T18:39:55.271Z,29.88
2022-07-25T18:42:25.044Z,29.77
2022-07-25T18:44:55.786Z,29.64
2022-07-25T18:47:25.487Z,29.53
2022-07-25T18:49:53.711Z,29.40
2022-07-25T18:52:21.680Z,29.31
2022-07-25T18:54:48.613Z,29.21
2022-07-25T18:57:15.588Z,29.07
2022-07-25T18:59:42.264Z,28.96
2022-07-25T19:02:08.810Z,28.89
2022-07-25T19:04:35.538Z,28.83
2022-07-25T19:07:02.074Z,28.79
2022-07-25T19:09:28.592Z,28.73
2022-07-25T19:11:56.504Z,28.67
2022-07-25T19:14:26.013Z,28.63
2022-07-25T19:16:53.757Z,28.56
2022-07-25T19:19:20.687Z,28.53
2022-07-25T19:21:47.515Z,28.49
2022-07-25T19:24:14.450Z,28.44
2022-07-25T19:26:41.466Z,28.40
2022-07-25T19:29:09.410Z,28.34
2022-07-25T19:31:39.341Z,28.29
2022-07-25T19:34:07.013Z,28.24
2022-07-25T19:36:33.846Z,28.18
2022-07-25T19:39:00.770Z,28.12
2022-07-25T19:41:27.622Z,28.04
2022-07-25T19:43:54.507Z,27.99
2022-07-25T19:46:21.528Z,27.91
2022-07-25T19:48:48.180Z,27.83
2022-07-25T19:51:14.818Z,27.77
2022-07-25T19:53:41.261Z,27.73
2022-07-25T19:56:08.426Z,27.66
2022-07-25T19:58:38.657Z,27.59
2022-07-25T20:01:05.626Z,27.51
2022-07-25T20:03:32.161Z,27.44
2022-07-25T20:05:58.600Z,27.42
2022-07-25T20:08:30.835Z,27.41
2022-07-25T20:10:57.259Z,27.38
2022-07-25T20:13:23.853Z,27.33
2022-07-25T20:15:50.400Z,27.30
2022-07-25T20:18:19.544Z,27.24
2022-07-25T20:20:46.713Z,27.19
2022-07-25T20:23:13.164Z,27.12
2022-07-25T20:25:39.649Z,27.05
2022-07-25T20:28:06.280Z,26.98
2022-07-25T20:30:35.024Z,26.95
2022-07-25T20:33:01.803Z,26.94
2022-07-25T20:35:37.160Z,26.94
2022-07-25T20:38:10.073Z,26.88
2022-07-25T20:40:46.305Z,26.89
2022-07-25T20:43:15.048Z,26.88
2022-07-25T20:45:41.614Z,26.86
2022-07-25T20:48:08.201Z,26.85
2022-07-25T20:50:37.291Z,26.81
2022-07-25T20:53:08.023Z,26.80
2022-07-25T20:55:35.346Z,26.80
2022-07-25T20:58:02.720Z,26.76
2022-07-25T21:00:33.342Z,26.75
2022-07-25T21:03:00.906Z,26.71
2022-07-25T21:05:27.991Z,26.60
2022-07-25T21:07:55.085Z,26.55
2022-07-25T21:10:22.303Z,26.49
2022-07-25T21:12:49.201Z,26.42
2022-07-25T21:15:18.869Z,26.39
2022-07-25T21:17:49.665Z,26.32
2022-07-25T21:20:20.837Z,26.26
2022-07-25T21:22:49.364Z,26.26
2022-07-25T21:25:16.586Z,26.25
2022-07-25T21:27:46.500Z,26.24
2022-07-25T21:30:16.445Z,26.21
2022-07-25T21:32:49.245Z,26.10
2022-07-25T21:35:18.548Z,26.02
2022-07-25T21:37:45.168Z,26.04
2022-07-25T21:40:13.407Z,25.92
2022-07-25T21:42:40.205Z,25.98
2022-07-25T21:45:07.659Z,26.02
2022-07-25T21:47:34.293Z,25.99
2022-07-25T21:50:24.369Z,25.98
2022-07-25T21:52:54.967Z,26.02
2022-07-25T21:55:21.887Z,25.96
2022-07-25T21:57:49.813Z,25.88
2022-07-25T22:00:17.226Z,25.76
2022-07-25T22:02:48.065Z,25.75
2022-07-25T22:05:32.088Z,25.72
2022-07-25T22:08:07.038Z,25.66
2022-07-25T22:10:39.160Z,25.66
2022-07-25T22:13:10.924Z,25.61
2022-07-25T22:15:40.981Z,25.50
2022-07-25T22:18:11.580Z,25.54
2022-07-25T22:20:42.533Z,25.49
2022-07-25T22:23:13.121Z,25.50
2022-07-25T22:25:42.059Z,25.54
2022-07-25T22:28:14.116Z,25.54
2022-07-25T22:30:41.780Z,25.48
2022-07-25T22:33:08.401Z,25.52
2022-07-25T22:35:39.050Z,25.47
2022-07-25T22:38:06.276Z,25.46
2022-07-25T22:40:36.287Z,25.35
2022-07-25T22:43:06.027Z,25.34
2022-07-25T22:45:43.008Z,25.35
2022-07-25T22:48:11.283Z,25.36
2022-07-25T22:50:38.355Z,25.38
2022-07-25T22:53:05.076Z,25.38
2022-07-25T22:55:32.035Z,25.37
2022-07-25T22:58:08.578Z,25.24
2022-07-25T23:00:35.654Z,25.25
2022-07-25T23:03:05.117Z,25.22
2022-07-25T23:05:31.980Z,25.14
2022-07-25T23:07:59.265Z,25.21
2022-07-25T23:10:28.656Z,25.11
2022-07-25T23:13:00.041Z,25.08
2022-07-25T23:15:28.571Z,25.09
2022-07-25T23:18:14.036Z,25.08
2022-07-25T23:20:40.738Z,25.05
2022-07-25T23:23:07.423Z,25.09
2022-07-25T23:25:35.557Z,25.11
2022-07-25T23:28:02.449Z,25.04
2022-07-25T23:30:29.193Z,25.05
2022-07-25T23:32:55.987Z,25.00
2022-07-25T23:35:22.889Z,25.03
2022-07-25T23:37:49.818Z,24.99
2022-07-25T23:40:16.560Z,25.01
2022-07-25T23:42:44.091Z,24.98
2022-07-25T23:45:11.658Z,24.97
2022-07-25T23:47:39.671Z,24.93
2022-07-25T23:50:08.583Z,24.93
2022-07-25T23:52:35.263Z,24.91
2022-07-25T23:55:02.018Z,24.90
2022-07-25T23:57:28.940Z,24.85
2022-07-25T23:59:55.905Z,24.89
